Hlavní strana
METAR-TAF:

METAR-TAF

Letiště :

Perry, Georgie, Spojené státy americké

zeměpisná šířka: 32-30-38N, zeměpisná délka: 083-46-02W, výška: 127 m

Aktuální stav počasí

Zpráva byla vytvořena před 22 minutami, v 01:15 UTC
Jižní vítr 6 kt
Teplota 15°C
Vlhkost vzduchu 94%
Tlak 1021 hPa
Viditelnost: 11.3 km
Polojasno ve výšce 2100 ft
Oblačno až skoro zataženo ve výšce 4800 ft
Zataženo ve výšce 10000 ft
déšť, kouřmo

METAR: KPXE 190115Z AUTO 19006KT 7SM RA BR SCT021 BKN048 OVC100 15/14 A3015 RMK AO2 P0001 T01490141

Čas: 20:37 (01:37 UTC)


TAF: chybějící

Stav a předpovědi počasí z více než 4 000 letišť (zprávy METAR a TAF).

Červené a žluté tečky na mapě představují dostupné meteorologické stanice.

Když kurzor umístíte na tečku, zobrazí se název stanice.

Pak kliknutím zobrazíte stav a předpověď počasí.

Chcete-li změnit mapu, kliknutím na zelené tlačítko se znaménkem +mapu přiblížíte, kliknutím na zelené tlačítko se znaménkem – mapu oddálíte a kliknutím na zelené šipky přejdete na sousední mapy.


METAR-TAF: